sensor_id;sensor_type;location;lat;lon;timestamp;temperature;humidity
23089;DHT22;11713;48.506;8.966;2023-04-25T00:01:33;8.80;99.90
23089;DHT22;11713;48.506;8.966;2023-04-25T00:04:03;8.80;99.90
23089;DHT22;11713;48.506;8.966;2023-04-25T00:06:32;8.80;99.90
23089;DHT22;11713;48.506;8.966;2023-04-25T00:08:58;8.70;99.90
23089;DHT22;11713;48.506;8.966;2023-04-25T00:11:24;8.70;99.90
23089;DHT22;11713;48.506;8.966;2023-04-25T00:13:50;8.70;99.90
23089;DHT22;11713;48.506;8.966;2023-04-25T00:16:19;8.70;99.90
23089;DHT22;11713;48.506;8.966;2023-04-25T00:18:45;8.70;99.90
23089;DHT22;11713;48.506;8.966;2023-04-25T00:21:18;8.70;99.90
23089;DHT22;11713;48.506;8.966;2023-04-25T00:23:43;8.70;99.90
23089;DHT22;11713;48.506;8.966;2023-04-25T00:26:11;8.70;99.90
23089;DHT22;11713;48.506;8.966;2023-04-25T00:28:37;8.70;99.90
23089;DHT22;11713;48.506;8.966;2023-04-25T00:31:03;8.60;99.90
23089;DHT22;11713;48.506;8.966;2023-04-25T00:33:29;8.50;99.90
23089;DHT22;11713;48.506;8.966;2023-04-25T00:35:55;8.40;99.90
23089;DHT22;11713;48.506;8.966;2023-04-25T00:38:22;8.40;99.90
23089;DHT22;11713;48.506;8.966;2023-04-25T00:40:47;8.40;99.90
23089;DHT22;11713;48.506;8.966;2023-04-25T00:43:13;8.40;99.90
23089;DHT22;11713;48.506;8.966;2023-04-25T00:45:40;8.40;99.90
23089;DHT22;11713;48.506;8.966;2023-04-25T00:48:06;8.40;99.90
23089;DHT22;11713;48.506;8.966;2023-04-25T00:50:36;8.40;99.90
23089;DHT22;11713;48.506;8.966;2023-04-25T00:53:02;8.40;99.90
23089;DHT22;11713;48.506;8.966;2023-04-25T00:55:29;8.40;99.90
23089;DHT22;11713;48.506;8.966;2023-04-25T00:57:57;8.40;99.90
23089;DHT22;11713;48.506;8.966;2023-04-25T01:00:23;8.30;99.90
23089;DHT22;11713;48.506;8.966;2023-04-25T01:02:49;8.40;99.90
23089;DHT22;11713;48.506;8.966;2023-04-25T01:05:15;8.40;99.90
23089;DHT22;11713;48.506;8.966;2023-04-25T01:07:41;8.40;99.90
23089;DHT22;11713;48.506;8.966;2023-04-25T01:10:08;8.40;99.90
23089;DHT22;11713;48.506;8.966;2023-04-25T01:12:34;8.40;99.90
23089;DHT22;11713;48.506;8.966;2023-04-25T01:15:00;8.40;99.90
23089;DHT22;11713;48.506;8.966;2023-04-25T01:17:26;8.50;99.90
23089;DHT22;11713;48.506;8.966;2023-04-25T01:19:52;8.50;99.90
23089;DHT22;11713;48.506;8.966;2023-04-25T01:22:18;8.50;99.90
23089;DHT22;11713;48.506;8.966;2023-04-25T01:24:45;8.50;99.90
23089;DHT22;11713;48.506;8.966;2023-04-25T01:27:12;8.50;99.90
23089;DHT22;11713;48.506;8.966;2023-04-25T01:29:38;8.50;99.90
23089;DHT22;11713;48.506;8.966;2023-04-25T01:32:05;8.50;99.90
23089;DHT22;11713;48.506;8.966;2023-04-25T01:34:32;8.50;99.90
23089;DHT22;11713;48.506;8.966;2023-04-25T01:37:00;8.40;99.90
23089;DHT22;11713;48.506;8.966;2023-04-25T01:39:28;8.20;99.90
23089;DHT22;11713;48.506;8.966;2023-04-25T01:41:54;8.10;99.90
23089;DHT22;11713;48.506;8.966;2023-04-25T01:44:20;8.20;99.90
23089;DHT22;11713;48.506;8.966;2023-04-25T01:46:47;8.20;99.90
23089;DHT22;11713;48.506;8.966;2023-04-25T01:49:13;8.20;99.90
23089;DHT22;11713;48.506;8.966;2023-04-25T01:51:40;8.20;99.90
23089;DHT22;11713;48.506;8.966;2023-04-25T01:54:07;8.30;99.90
23089;DHT22;11713;48.506;8.966;2023-04-25T01:56:37;8.30;99.90
23089;DHT22;11713;48.506;8.966;2023-04-25T01:59:04;8.40;99.90
23089;DHT22;11713;48.506;8.966;2023-04-25T02:01:45;8.40;99.90
23089;DHT22;11713;48.506;8.966;2023-04-25T02:04:19;8.40;99.90
23089;DHT22;11713;48.506;8.966;2023-04-25T02:06:45;8.40;99.90
23089;DHT22;11713;48.506;8.966;2023-04-25T02:09:12;8.40;99.90
23089;DHT22;11713;48.506;8.966;2023-04-25T02:11:43;8.40;99.90
23089;DHT22;11713;48.506;8.966;2023-04-25T02:14:22;8.50;99.90
23089;DHT22;11713;48.506;8.966;2023-04-25T02:17:14;8.40;99.90
23089;DHT22;11713;48.506;8.966;2023-04-25T02:19:41;8.40;99.90
23089;DHT22;11713;48.506;8.966;2023-04-25T02:22:07;8.40;99.90
23089;DHT22;11713;48.506;8.966;2023-04-25T02:24:33;8.30;99.90
23089;DHT22;11713;48.506;8.966;2023-04-25T02:27:00;8.20;99.90
23089;DHT22;11713;48.506;8.966;2023-04-25T02:29:26;8.20;99.90
23089;DHT22;11713;48.506;8.966;2023-04-25T02:31:52;8.10;99.90
23089;DHT22;11713;48.506;8.966;2023-04-25T02:34:17;8.10;99.90
23089;DHT22;11713;48.506;8.966;2023-04-25T02:36:43;8.00;99.90
23089;DHT22;11713;48.506;8.966;2023-04-25T02:39:09;7.90;99.90
23089;DHT22;11713;48.506;8.966;2023-04-25T02:41:35;7.90;99.90
23089;DHT22;11713;48.506;8.966;2023-04-25T02:44:01;7.90;99.90
23089;DHT22;11713;48.506;8.966;2023-04-25T02:46:27;7.90;99.90
23089;DHT22;11713;48.506;8.966;2023-04-25T02:48:53;7.90;99.90
23089;DHT22;11713;48.506;8.966;2023-04-25T02:51:19;7.90;99.90
23089;DHT22;11713;48.506;8.966;2023-04-25T02:53:45;7.80;99.90
23089;DHT22;11713;48.506;8.966;2023-04-25T02:56:10;7.80;99.90
23089;DHT22;11713;48.506;8.966;2023-04-25T02:58:36;7.80;99.90
23089;DHT22;11713;48.506;8.966;2023-04-25T03:01:02;7.80;99.90
23089;DHT22;11713;48.506;8.966;2023-04-25T03:03:28;7.80;99.90
23089;DHT22;11713;48.506;8.966;2023-04-25T03:05:53;7.80;99.90
23089;DHT22;11713;48.506;8.966;2023-04-25T03:08:25;7.60;99.90
23089;DHT22;11713;48.506;8.966;2023-04-25T03:10:57;7.60;99.90
23089;DHT22;11713;48.506;8.966;2023-04-25T03:13:24;7.60;99.90
23089;DHT22;11713;48.506;8.966;2023-04-25T03:15:50;7.60;99.90
23089;DHT22;11713;48.506;8.966;2023-04-25T03:18:17;7.60;99.90
23089;DHT22;11713;48.506;8.966;2023-04-25T03:20:43;7.70;99.90
23089;DHT22;11713;48.506;8.966;2023-04-25T03:23:09;7.70;99.90
23089;DHT22;11713;48.506;8.966;2023-04-25T03:25:36;7.70;99.90
23089;DHT22;11713;48.506;8.966;2023-04-25T03:28:03;7.70;99.90
23089;DHT22;11713;48.506;8.966;2023-04-25T03:30:29;7.70;99.90
23089;DHT22;11713;48.506;8.966;2023-04-25T03:32:55;7.70;99.90
23089;DHT22;11713;48.506;8.966;2023-04-25T03:35:21;7.70;99.90
23089;DHT22;11713;48.506;8.966;2023-04-25T03:37:49;7.60;99.90
23089;DHT22;11713;48.506;8.966;2023-04-25T03:40:23;7.60;99.90
23089;DHT22;11713;48.506;8.966;2023-04-25T03:43:18;7.60;99.90
23089;DHT22;11713;48.506;8.966;2023-04-25T03:45:57;7.60;99.90
23089;DHT22;11713;48.506;8.966;2023-04-25T03:48:40;7.60;99.90
23089;DHT22;11713;48.506;8.966;2023-04-25T03:51:15;7.50;99.90
23089;DHT22;11713;48.506;8.966;2023-04-25T03:53:44;7.50;99.90
23089;DHT22;11713;48.506;8.966;2023-04-25T03:56:36;7.40;99.90
23089;DHT22;11713;48.506;8.966;2023-04-25T03:59:13;7.40;99.90
23089;DHT22;11713;48.506;8.966;2023-04-25T04:01:38;7.40;99.90
23089;DHT22;11713;48.506;8.966;2023-04-25T04:04:04;7.40;99.90
23089;DHT22;11713;48.506;8.966;2023-04-25T04:06:31;7.40;99.90
23089;DHT22;11713;48.506;8.966;2023-04-25T04:09:04;7.40;99.90
23089;DHT22;11713;48.506;8.966;2023-04-25T04:11:35;7.40;99.90
23089;DHT22;11713;48.506;8.966;2023-04-25T04:14:02;7.40;99.90
23089;DHT22;11713;48.506;8.966;2023-04-25T04:16:28;7.40;99.90
23089;DHT22;11713;48.506;8.966;2023-04-25T04:18:54;7.40;99.90
23089;DHT22;11713;48.506;8.966;2023-04-25T04:21:20;7.40;99.90
23089;DHT22;11713;48.506;8.966;2023-04-25T04:23:45;7.30;99.90
23089;DHT22;11713;48.506;8.966;2023-04-25T04:26:12;7.30;99.90
23089;DHT22;11713;48.506;8.966;2023-04-25T04:28:42;7.30;99.90
23089;DHT22;11713;48.506;8.966;2023-04-25T04:31:17;7.30;99.90
23089;DHT22;11713;48.506;8.966;2023-04-25T04:33:45;7.30;99.90
23089;DHT22;11713;48.506;8.966;2023-04-25T04:36:14;7.30;99.90
23089;DHT22;11713;48.506;8.966;2023-04-25T04:38:40;7.30;99.90
23089;DHT22;11713;48.506;8.966;2023-04-25T04:41:08;7.30;99.90
23089;DHT22;11713;48.506;8.966;2023-04-25T04:43:45;7.30;99.90
23089;DHT22;11713;48.506;8.966;2023-04-25T04:46:30;7.30;99.90
23089;DHT22;11713;48.506;8.966;2023-04-25T04:49:12;7.30;99.90
23089;DHT22;11713;48.506;8.966;2023-04-25T04:52:08;7.30;99.90
23089;DHT22;11713;48.506;8.966;2023-04-25T04:55:10;7.30;99.90
23089;DHT22;11713;48.506;8.966;2023-04-25T04:58:04;7.30;99.90
23089;DHT22;11713;48.506;8.966;2023-04-25T05:00:38;7.30;99.90
23089;DHT22;11713;48.506;8.966;2023-04-25T05:03:18;7.30;99.90
23089;DHT22;11713;48.506;8.966;2023-04-25T05:06:03;7.30;99.90
23089;DHT22;11713;48.506;8.966;2023-04-25T05:08:38;7.20;99.90
23089;DHT22;11713;48.506;8.966;2023-04-25T05:11:23;7.20;99.90
23089;DHT22;11713;48.506;8.966;2023-04-25T05:14:08;7.20;99.90
23089;DHT22;11713;48.506;8.966;2023-04-25T05:16:43;7.30;99.90
23089;DHT22;11713;48.506;8.966;2023-04-25T05:19:29;7.30;99.90
23089;DHT22;11713;48.506;8.966;2023-04-25T05:22:22;7.40;99.90
23089;DHT22;11713;48.506;8.966;2023-04-25T05:25:07;7.50;99.90
23089;DHT22;11713;48.506;8.966;2023-04-25T05:27:50;7.60;99.90
23089;DHT22;11713;48.506;8.966;2023-04-25T05:30:36;7.60;99.90
23089;DHT22;11713;48.506;8.966;2023-04-25T05:33:09;7.70;99.90
23089;DHT22;11713;48.506;8.966;2023-04-25T05:35:35;7.70;99.90
23089;DHT22;11713;48.506;8.966;2023-04-25T05:38:00;7.80;99.90
23089;DHT22;11713;48.506;8.966;2023-04-25T05:40:45;7.90;99.90
23089;DHT22;11713;48.506;8.966;2023-04-25T05:43:20;7.90;99.90
23089;DHT22;11713;48.506;8.966;2023-04-25T05:45:59;8.00;99.90
23089;DHT22;11713;48.506;8.966;2023-04-25T05:48:51;8.10;99.90
23089;DHT22;11713;48.506;8.966;2023-04-25T05:51:39;8.20;99.90
23089;DHT22;11713;48.506;8.966;2023-04-25T05:54:26;8.30;99.90
23089;DHT22;11713;48.506;8.966;2023-04-25T05:56:53;8.30;99.90
23089;DHT22;11713;48.506;8.966;2023-04-25T05:59:19;8.30;99.90
23089;DHT22;11713;48.506;8.966;2023-04-25T06:01:45;8.30;99.90
23089;DHT22;11713;48.506;8.966;2023-04-25T06:04:12;8.40;99.90
23089;DHT22;11713;48.506;8.966;2023-04-25T06:06:38;8.50;99.90
23089;DHT22;11713;48.506;8.966;2023-04-25T06:09:04;8.50;99.90
23089;DHT22;11713;48.506;8.966;2023-04-25T06:11:31;8.40;99.90
23089;DHT22;11713;48.506;8.966;2023-04-25T06:13:56;8.40;99.90
23089;DHT22;11713;48.506;8.966;2023-04-25T06:16:23;8.50;99.90
23089;DHT22;11713;48.506;8.966;2023-04-25T06:18:51;8.40;99.90
23089;DHT22;11713;48.506;8.966;2023-04-25T06:21:17;8.40;99.90
23089;DHT22;11713;48.506;8.966;2023-04-25T06:23:43;8.50;99.90
23089;DHT22;11713;48.506;8.966;2023-04-25T06:26:11;8.50;99.90
23089;DHT22;11713;48.506;8.966;2023-04-25T06:28:44;8.40;99.90
23089;DHT22;11713;48.506;8.966;2023-04-25T06:31:10;8.50;99.90
23089;DHT22;11713;48.506;8.966;2023-04-25T06:33:36;8.50;99.90
23089;DHT22;11713;48.506;8.966;2023-04-25T06:36:03;8.50;99.90
23089;DHT22;11713;48.506;8.966;2023-04-25T06:38:30;8.40;99.90
23089;DHT22;11713;48.506;8.966;2023-04-25T06:40:57;8.40;99.90
23089;DHT22;11713;48.506;8.966;2023-04-25T06:43:23;8.40;99.90
23089;DHT22;11713;48.506;8.966;2023-04-25T06:45:49;8.40;99.90
23089;DHT22;11713;48.506;8.966;2023-04-25T06:48:16;8.40;99.90
23089;DHT22;11713;48.506;8.966;2023-04-25T06:50:42;8.40;99.90
23089;DHT22;11713;48.506;8.966;2023-04-25T06:53:08;8.30;99.90
23089;DHT22;11713;48.506;8.966;2023-04-25T06:55:35;8.40;99.90
23089;DHT22;11713;48.506;8.966;2023-04-25T06:58:19;8.30;99.90
23089;DHT22;11713;48.506;8.966;2023-04-25T07:01:02;8.30;99.90
23089;DHT22;11713;48.506;8.966;2023-04-25T07:03:28;8.40;99.90
23089;DHT22;11713;48.506;8.966;2023-04-25T07:06:01;8.40;99.90
23089;DHT22;11713;48.506;8.966;2023-04-25T07:08:29;8.40;99.90
23089;DHT22;11713;48.506;8.966;2023-04-25T07:10:57;8.50;99.90
23089;DHT22;11713;48.506;8.966;2023-04-25T07:13:23;8.50;99.90
23089;DHT22;11713;48.506;8.966;2023-04-25T07:15:50;8.40;99.90
23089;DHT22;11713;48.506;8.966;2023-04-25T07:18:18;8.40;99.90
23089;DHT22;11713;48.506;8.966;2023-04-25T07:20:44;8.40;99.90
23089;DHT22;11713;48.506;8.966;2023-04-25T07:23:10;8.40;99.90
23089;DHT22;11713;48.506;8.966;2023-04-25T07:25:37;8.40;99.90
23089;DHT22;11713;48.506;8.966;2023-04-25T07:28:02;8.40;99.90
23089;DHT22;11713;48.506;8.966;2023-04-25T07:30:28;8.40;99.90
23089;DHT22;11713;48.506;8.966;2023-04-25T07:32:54;8.50;99.90
23089;DHT22;11713;48.506;8.966;2023-04-25T07:35:21;8.50;99.90
23089;DHT22;11713;48.506;8.966;2023-04-25T07:37:47;8.50;99.90
23089;DHT22;11713;48.506;8.966;2023-04-25T07:40:17;8.60;99.90
23089;DHT22;11713;48.506;8.966;2023-04-25T07:42:56;8.60;99.90
23089;DHT22;11713;48.506;8.966;2023-04-25T07:45:29;8.60;99.90
23089;DHT22;11713;48.506;8.966;2023-04-25T07:47:55;8.70;99.90
23089;DHT22;11713;48.506;8.966;2023-04-25T07:50:21;8.70;99.90
23089;DHT22;11713;48.506;8.966;2023-04-25T07:52:47;8.70;99.90
23089;DHT22;11713;48.506;8.966;2023-04-25T07:55:22;8.70;99.90
23089;DHT22;11713;48.506;8.966;2023-04-25T07:58:09;8.70;99.90
23089;DHT22;11713;48.506;8.966;2023-04-25T08:00:38;8.70;99.90
23089;DHT22;11713;48.506;8.966;2023-04-25T08:03:37;8.70;99.90
23089;DHT22;11713;48.506;8.966;2023-04-25T08:06:07;8.60;99.90
23089;DHT22;11713;48.506;8.966;2023-04-25T08:08:39;8.60;99.90
23089;DHT22;11713;48.506;8.966;2023-04-25T08:11:07;8.60;99.90
23089;DHT22;11713;48.506;8.966;2023-04-25T08:13:32;8.60;99.90
23089;DHT22;11713;48.506;8.966;2023-04-25T08:15:59;8.60;99.90
23089;DHT22;11713;48.506;8.966;2023-04-25T08:18:25;8.60;99.90
23089;DHT22;11713;48.506;8.966;2023-04-25T08:20:52;8.60;99.90
23089;DHT22;11713;48.506;8.966;2023-04-25T08:23:17;8.60;99.90
23089;DHT22;11713;48.506;8.966;2023-04-25T08:25:51;8.60;99.90
23089;DHT22;11713;48.506;8.966;2023-04-25T08:28:19;8.50;99.90
23089;DHT22;11713;48.506;8.966;2023-04-25T08:30:47;8.40;99.90
23089;DHT22;11713;48.506;8.966;2023-04-25T08:33:14;8.40;99.90
23089;DHT22;11713;48.506;8.966;2023-04-25T08:35:59;8.20;99.90
23089;DHT22;11713;48.506;8.966;2023-04-25T08:38:26;8.10;99.90
23089;DHT22;11713;48.506;8.966;2023-04-25T08:40:54;8.00;99.90
23089;DHT22;11713;48.506;8.966;2023-04-25T08:43:23;7.80;99.90
23089;DHT22;11713;48.506;8.966;2023-04-25T08:45:53;7.70;99.90
23089;DHT22;11713;48.506;8.966;2023-04-25T08:48:45;7.70;99.90
23089;DHT22;11713;48.506;8.966;2023-04-25T08:51:21;7.60;99.90
23089;DHT22;11713;48.506;8.966;2023-04-25T08:53:51;7.60;99.90
23089;DHT22;11713;48.506;8.966;2023-04-25T08:56:18;7.60;99.90
23089;DHT22;11713;48.506;8.966;2023-04-25T08:58:48;7.70;99.90
23089;DHT22;11713;48.506;8.966;2023-04-25T09:01:15;7.60;99.90
23089;DHT22;11713;48.506;8.966;2023-04-25T09:03:47;7.60;99.90
23089;DHT22;11713;48.506;8.966;2023-04-25T09:06:14;7.60;99.90
23089;DHT22;11713;48.506;8.966;2023-04-25T09:08:41;7.60;99.90
23089;DHT22;11713;48.506;8.966;2023-04-25T09:11:08;7.60;99.90
23089;DHT22;11713;48.506;8.966;2023-04-25T09:13:34;7.50;99.90
23089;DHT22;11713;48.506;8.966;2023-04-25T09:16:18;7.60;99.90
23089;DHT22;11713;48.506;8.966;2023-04-25T09:19:39;7.60;99.90
23089;DHT22;11713;48.506;8.966;2023-04-25T09:22:10;7.60;99.90
23089;DHT22;11713;48.506;8.966;2023-04-25T09:27:09;7.50;99.90
23089;DHT22;11713;48.506;8.966;2023-04-25T09:29:37;7.50;99.90
23089;DHT22;11713;48.506;8.966;2023-04-25T09:34:43;7.50;99.90
23089;DHT22;11713;48.506;8.966;2023-04-25T09:37:16;7.50;99.90
23089;DHT22;11713;48.506;8.966;2023-04-25T09:40:05;7.50;99.90
23089;DHT22;11713;48.506;8.966;2023-04-25T09:42:33;7.50;99.90
23089;DHT22;11713;48.506;8.966;2023-04-25T09:45:01;7.50;99.90
23089;DHT22;11713;48.506;8.966;2023-04-25T09:47:30;7.50;99.90
23089;DHT22;11713;48.506;8.966;2023-04-25T09:49:56;7.50;99.90
23089;DHT22;11713;48.506;8.966;2023-04-25T09:52:23;7.50;99.90
23089;DHT22;11713;48.506;8.966;2023-04-25T09:54:59;7.50;99.90
23089;DHT22;11713;48.506;8.966;2023-04-25T09:57:31;7.40;99.90
23089;DHT22;11713;48.506;8.966;2023-04-25T10:00:00;7.30;99.90
23089;DHT22;11713;48.506;8.966;2023-04-25T10:02:31;7.30;99.90
23089;DHT22;11713;48.506;8.966;2023-04-25T10:05:05;7.20;99.90
23089;DHT22;11713;48.506;8.966;2023-04-25T10:07:38;7.10;99.90
23089;DHT22;11713;48.506;8.966;2023-04-25T10:10:08;7.00;99.90
23089;DHT22;11713;48.506;8.966;2023-04-25T10:12:36;6.90;99.90
23089;DHT22;11713;48.506;8.966;2023-04-25T10:15:04;6.60;99.90
23089;DHT22;11713;48.506;8.966;2023-04-25T10:17:30;6.50;99.90
23089;DHT22;11713;48.506;8.966;2023-04-25T10:19:57;6.50;99.90
23089;DHT22;11713;48.506;8.966;2023-04-25T10:22:32;6.40;99.90
23089;DHT22;11713;48.506;8.966;2023-04-25T10:25:01;6.40;99.90
23089;DHT22;11713;48.506;8.966;2023-04-25T10:27:29;6.40;99.90
23089;DHT22;11713;48.506;8.966;2023-04-25T10:30:04;6.40;99.90
23089;DHT22;11713;48.506;8.966;2023-04-25T10:32:32;6.50;99.90
23089;DHT22;11713;48.506;8.966;2023-04-25T10:37:36;6.50;99.90
23089;DHT22;11713;48.506;8.966;2023-04-25T10:40:10;6.50;99.90
23089;DHT22;11713;48.506;8.966;2023-04-25T10:42:36;6.50;99.90
23089;DHT22;11713;48.506;8.966;2023-04-25T10:45:04;6.60;99.90
23089;DHT22;11713;48.506;8.966;2023-04-25T10:47:43;6.60;99.90
23089;DHT22;11713;48.506;8.966;2023-04-25T10:50:11;6.80;99.90
23089;DHT22;11713;48.506;8.966;2023-04-25T10:52:39;6.80;99.90
23089;DHT22;11713;48.506;8.966;2023-04-25T10:55:08;6.90;99.90
23089;DHT22;11713;48.506;8.966;2023-04-25T10:57:42;6.90;99.90
23089;DHT22;11713;48.506;8.966;2023-04-25T11:00:17;6.90;99.90
23089;DHT22;11713;48.506;8.966;2023-04-25T11:02:52;7.00;99.90
23089;DHT22;11713;48.506;8.966;2023-04-25T11:05:35;6.90;99.90
23089;DHT22;11713;48.506;8.966;2023-04-25T11:08:02;6.80;99.90
23089;DHT22;11713;48.506;8.966;2023-04-25T11:10:32;6.90;99.90
23089;DHT22;11713;48.506;8.966;2023-04-25T11:13:01;7.00;99.90
23089;DHT22;11713;48.506;8.966;2023-04-25T11:15:27;7.00;99.90
23089;DHT22;11713;48.506;8.966;2023-04-25T11:17:54;6.90;99.90
23089;DHT22;11713;48.506;8.966;2023-04-25T11:20:20;7.00;99.90
23089;DHT22;11713;48.506;8.966;2023-04-25T11:22:47;7.10;99.90
23089;DHT22;11713;48.506;8.966;2023-04-25T11:25:14;7.10;99.90
23089;DHT22;11713;48.506;8.966;2023-04-25T11:30:17;7.50;99.90
23089;DHT22;11713;48.506;8.966;2023-04-25T11:32:43;7.60;99.90
23089;DHT22;11713;48.506;8.966;2023-04-25T11:35:10;7.80;99.90
23089;DHT22;11713;48.506;8.966;2023-04-25T11:37:38;8.00;99.90
23089;DHT22;11713;48.506;8.966;2023-04-25T11:40:05;8.20;99.90
23089;DHT22;11713;48.506;8.966;2023-04-25T11:42:39;8.30;99.90
23089;DHT22;11713;48.506;8.966;2023-04-25T11:45:06;8.30;99.90
23089;DHT22;11713;48.506;8.966;2023-04-25T11:47:33;8.40;99.90
23089;DHT22;11713;48.506;8.966;2023-04-25T11:50:00;8.50;99.90
23089;DHT22;11713;48.506;8.966;2023-04-25T11:52:47;8.60;99.90
23089;DHT22;11713;48.506;8.966;2023-04-25T11:55:18;8.70;99.90
23089;DHT22;11713;48.506;8.966;2023-04-25T11:57:48;8.80;99.90
23089;DHT22;11713;48.506;8.966;2023-04-25T12:00:20;8.60;99.90
23089;DHT22;11713;48.506;8.966;2023-04-25T12:02:52;8.70;99.90
23089;DHT22;11713;48.506;8.966;2023-04-25T12:05:19;8.90;99.90
23089;DHT22;11713;48.506;8.966;2023-04-25T12:07:46;8.90;99.90
23089;DHT22;11713;48.506;8.966;2023-04-25T12:10:16;8.90;99.90
23089;DHT22;11713;48.506;8.966;2023-04-25T12:12:44;8.80;99.90
23089;DHT22;11713;48.506;8.966;2023-04-25T12:15:24;8.90;99.90
23089;DHT22;11713;48.506;8.966;2023-04-25T12:17:52;8.90;99.90
23089;DHT22;11713;48.506;8.966;2023-04-25T12:20:21;9.00;99.90
23089;DHT22;11713;48.506;8.966;2023-04-25T12:22:50;9.10;99.90
23089;DHT22;11713;48.506;8.966;2023-04-25T12:25:38;9.20;99.90
23089;DHT22;11713;48.506;8.966;2023-04-25T12:28:14;9.20;99.90
23089;DHT22;11713;48.506;8.966;2023-04-25T12:31:02;9.30;99.90
23089;DHT22;11713;48.506;8.966;2023-04-25T12:33:34;9.30;99.90
23089;DHT22;11713;48.506;8.966;2023-04-25T12:36:03;9.30;99.90
23089;DHT22;11713;48.506;8.966;2023-04-25T12:38:36;9.30;99.90
23089;DHT22;11713;48.506;8.966;2023-04-25T12:41:02;9.30;99.90
23089;DHT22;11713;48.506;8.966;2023-04-25T12:43:28;9.30;99.90
23089;DHT22;11713;48.506;8.966;2023-04-25T12:45:55;9.30;99.90
23089;DHT22;11713;48.506;8.966;2023-04-25T12:48:21;9.30;99.90
23089;DHT22;11713;48.506;8.966;2023-04-25T12:50:48;9.50;99.90
23089;DHT22;11713;48.506;8.966;2023-04-25T12:53:15;9.60;99.90
23089;DHT22;11713;48.506;8.966;2023-04-25T12:55:41;9.50;99.90
23089;DHT22;11713;48.506;8.966;2023-04-25T12:58:07;9.20;99.90
23089;DHT22;11713;48.506;8.966;2023-04-25T13:00:33;9.10;99.90
23089;DHT22;11713;48.506;8.966;2023-04-25T13:02:59;9.30;99.90
23089;DHT22;11713;48.506;8.966;2023-04-25T13:05:25;9.00;99.90
23089;DHT22;11713;48.506;8.966;2023-04-25T13:07:51;8.90;99.90
23089;DHT22;11713;48.506;8.966;2023-04-25T13:10:17;8.90;99.90
23089;DHT22;11713;48.506;8.966;2023-04-25T13:12:43;9.00;99.90
23089;DHT22;11713;48.506;8.966;2023-04-25T13:15:10;9.00;99.90
23089;DHT22;11713;48.506;8.966;2023-04-25T13:17:38;9.10;99.90
23089;DHT22;11713;48.506;8.966;2023-04-25T13:20:05;9.00;99.90
23089;DHT22;11713;48.506;8.966;2023-04-25T13:22:35;8.80;99.90
23089;DHT22;11713;48.506;8.966;2023-04-25T13:25:03;8.80;99.90
23089;DHT22;11713;48.506;8.966;2023-04-25T13:27:29;8.70;99.90
23089;DHT22;11713;48.506;8.966;2023-04-25T13:29:58;8.80;99.90
23089;DHT22;11713;48.506;8.966;2023-04-25T13:32:24;8.90;99.90
23089;DHT22;11713;48.506;8.966;2023-04-25T13:34:51;8.80;99.90
23089;DHT22;11713;48.506;8.966;2023-04-25T13:37:17;9.00;99.90
23089;DHT22;11713;48.506;8.966;2023-04-25T13:39:43;9.10;99.90
23089;DHT22;11713;48.506;8.966;2023-04-25T13:42:08;9.10;99.90
23089;DHT22;11713;48.506;8.966;2023-04-25T13:44:34;9.10;99.90
23089;DHT22;11713;48.506;8.966;2023-04-25T13:47:00;9.30;99.90
23089;DHT22;11713;48.506;8.966;2023-04-25T13:49:26;9.20;99.90
23089;DHT22;11713;48.506;8.966;2023-04-25T13:51:52;9.20;99.90
23089;DHT22;11713;48.506;8.966;2023-04-25T13:54:18;9.30;99.90
23089;DHT22;11713;48.506;8.966;2023-04-25T13:56:44;9.40;99.90
23089;DHT22;11713;48.506;8.966;2023-04-25T13:59:10;9.50;99.90
23089;DHT22;11713;48.506;8.966;2023-04-25T14:01:36;9.60;99.90
23089;DHT22;11713;48.506;8.966;2023-04-25T14:04:02;9.70;99.90
23089;DHT22;11713;48.506;8.966;2023-04-25T14:06:29;9.80;99.90
23089;DHT22;11713;48.506;8.966;2023-04-25T14:08:56;10.10;99.90
23089;DHT22;11713;48.506;8.966;2023-04-25T14:11:22;10.20;99.90
23089;DHT22;11713;48.506;8.966;2023-04-25T14:13:47;10.40;99.90
23089;DHT22;11713;48.506;8.966;2023-04-25T14:16:15;10.40;99.90
23089;DHT22;11713;48.506;8.966;2023-04-25T14:18:41;10.70;99.90
23089;DHT22;11713;48.506;8.966;2023-04-25T14:21:07;11.20;99.90
23089;DHT22;11713;48.506;8.966;2023-04-25T14:23:33;11.60;99.90
23089;DHT22;11713;48.506;8.966;2023-04-25T14:25:59;11.80;99.90
23089;DHT22;11713;48.506;8.966;2023-04-25T14:28:25;12.00;99.90
23089;DHT22;11713;48.506;8.966;2023-04-25T14:30:51;12.30;99.90
23089;DHT22;11713;48.506;8.966;2023-04-25T14:33:16;12.60;99.90
23089;DHT22;11713;48.506;8.966;2023-04-25T14:35:42;12.40;99.90
23089;DHT22;11713;48.506;8.966;2023-04-25T14:38:08;12.50;99.90
23089;DHT22;11713;48.506;8.966;2023-04-25T14:40:34;12.40;99.90
23089;DHT22;11713;48.506;8.966;2023-04-25T14:42:59;12.40;99.90
23089;DHT22;11713;48.506;8.966;2023-04-25T14:45:25;12.30;99.90
23089;DHT22;11713;48.506;8.966;2023-04-25T14:47:51;12.10;99.90
23089;DHT22;11713;48.506;8.966;2023-04-25T14:50:17;12.00;99.90
23089;DHT22;11713;48.506;8.966;2023-04-25T14:52:43;11.90;99.90
23089;DHT22;11713;48.506;8.966;2023-04-25T14:55:10;11.80;99.90
23089;DHT22;11713;48.506;8.966;2023-04-25T14:57:36;11.70;99.90
23089;DHT22;11713;48.506;8.966;2023-04-25T15:00:04;11.60;99.90
23089;DHT22;11713;48.506;8.966;2023-04-25T15:02:32;11.50;99.90
23089;DHT22;11713;48.506;8.966;2023-04-25T15:04:58;11.40;99.90
23089;DHT22;11713;48.506;8.966;2023-04-25T15:07:24;11.50;99.90
23089;DHT22;11713;48.506;8.966;2023-04-25T15:09:50;11.50;99.90
23089;DHT22;11713;48.506;8.966;2023-04-25T15:12:16;11.50;99.90
23089;DHT22;11713;48.506;8.966;2023-04-25T15:14:41;11.60;99.90
23089;DHT22;11713;48.506;8.966;2023-04-25T15:17:07;11.60;99.90
23089;DHT22;11713;48.506;8.966;2023-04-25T15:19:33;11.50;99.90
23089;DHT22;11713;48.506;8.966;2023-04-25T15:21:59;11.40;99.90
23089;DHT22;11713;48.506;8.966;2023-04-25T15:24:29;11.40;99.90
23089;DHT22;11713;48.506;8.966;2023-04-25T15:26:55;11.40;99.90
23089;DHT22;11713;48.506;8.966;2023-04-25T15:29:22;11.30;99.90
23089;DHT22;11713;48.506;8.966;2023-04-25T15:31:47;11.30;99.90
23089;DHT22;11713;48.506;8.966;2023-04-25T15:34:13;11.30;99.90
23089;DHT22;11713;48.506;8.966;2023-04-25T15:36:39;11.20;99.90
23089;DHT22;11713;48.506;8.966;2023-04-25T15:39:05;11.30;99.90
23089;DHT22;11713;48.506;8.966;2023-04-25T15:41:31;11.20;99.90
23089;DHT22;11713;48.506;8.966;2023-04-25T15:43:59;11.00;99.90
23089;DHT22;11713;48.506;8.966;2023-04-25T15:46:26;11.00;99.90
23089;DHT22;11713;48.506;8.966;2023-04-25T15:48:52;11.10;99.90
23089;DHT22;11713;48.506;8.966;2023-04-25T15:51:18;11.20;99.90
23089;DHT22;11713;48.506;8.966;2023-04-25T15:53:44;11.30;99.90
23089;DHT22;11713;48.506;8.966;2023-04-25T15:56:10;11.40;99.90
23089;DHT22;11713;48.506;8.966;2023-04-25T15:58:36;11.30;99.90
23089;DHT22;11713;48.506;8.966;2023-04-25T16:01:03;11.20;99.90
23089;DHT22;11713;48.506;8.966;2023-04-25T16:03:29;11.10;99.90
23089;DHT22;11713;48.506;8.966;2023-04-25T16:05:59;10.90;99.90
23089;DHT22;11713;48.506;8.966;2023-04-25T16:08:27;10.80;99.90
23089;DHT22;11713;48.506;8.966;2023-04-25T16:10:54;10.60;99.90